createdAt,value
2024-02-18T00:01:00.819Z,100061.19
2024-02-18T00:03:28.163Z,100058.59
2024-02-18T00:05:56.087Z,100051.47
2024-02-18T00:08:22.979Z,100059.50
2024-02-18T00:10:49.823Z,100052.75
2024-02-18T00:13:16.680Z,100049.91
2024-02-18T00:15:43.500Z,100055.09
2024-02-18T00:18:11.443Z,100072.66
2024-02-18T00:20:38.380Z,100067.94
2024-02-18T00:23:05.112Z,100059.84
2024-02-18T00:25:31.965Z,100071.59
2024-02-18T00:27:59.786Z,100059.41
2024-02-18T00:30:27.785Z,100062.69
2024-02-18T00:32:54.815Z,100064.53
2024-02-18T00:35:21.697Z,100063.03
2024-02-18T00:37:48.432Z,100064.03
2024-02-18T00:40:15.354Z,100055.59
2024-02-18T00:42:42.190Z,100061.34
2024-02-18T00:45:09.451Z,100057.94
2024-02-18T00:47:36.126Z,100059.13
2024-02-18T00:50:03.149Z,100050.69
2024-02-18T00:52:30.059Z,100053.19
2024-02-18T00:54:57.036Z,100064.91
2024-02-18T00:57:23.915Z,100057.91
2024-02-18T00:59:50.736Z,100060.44
2024-02-18T01:02:17.506Z,100053.63
2024-02-18T01:04:44.260Z,100051.00
2024-02-18T01:07:11.256Z,100061.84
2024-02-18T01:09:38.213Z,100056.97
2024-02-18T01:12:05.534Z,100063.91
2024-02-18T01:14:32.185Z,100061.03
2024-02-18T01:16:59.610Z,100056.53
2024-02-18T01:19:26.869Z,100051.88
2024-02-18T01:21:53.950Z,100051.72
2024-02-18T01:24:20.822Z,100048.56
2024-02-18T01:26:47.568Z,100059.00
2024-02-18T01:29:14.330Z,100055.38
2024-02-18T01:31:41.364Z,100070.16
2024-02-18T01:34:08.281Z,100079.19
2024-02-18T01:36:35.299Z,100078.16
2024-02-18T01:39:02.617Z,100071.00
2024-02-18T01:41:29.194Z,100074.28
2024-02-18T01:43:55.950Z,100080.97
2024-02-18T01:46:22.923Z,100085.47
2024-02-18T01:48:50.542Z,100085.75
2024-02-18T01:51:17.434Z,100086.31
2024-02-18T01:53:45.075Z,100086.59
2024-02-18T01:56:13.204Z,100084.91
2024-02-18T01:58:41.074Z,100089.44
2024-02-18T02:01:08.102Z,100091.47
2024-02-18T02:03:39.059Z,100093.06
2024-02-18T02:06:07.943Z,100092.88
2024-02-18T02:08:34.859Z,100081.47
2024-02-18T02:11:02.339Z,100087.50
2024-02-18T02:13:29.184Z,100092.38
2024-02-18T02:15:56.087Z,100095.84
2024-02-18T02:18:23.094Z,100098.53
2024-02-18T02:20:49.853Z,100092.78
2024-02-18T02:23:17.768Z,100093.34
2024-02-18T02:25:44.548Z,100087.66
2024-02-18T02:28:20.245Z,100097.44
2024-02-18T02:30:50.859Z,100097.84
2024-02-18T02:33:22.746Z,100093.28
2024-02-18T02:35:50.143Z,100093.91
2024-02-18T02:38:16.985Z,100085.22
2024-02-18T02:40:43.818Z,100097.03
2024-02-18T02:43:12.197Z,100092.56
2024-02-18T02:45:39.269Z,100091.72
2024-02-18T02:48:06.404Z,100090.09
2024-02-18T02:50:35.934Z,100090.75
2024-02-18T02:53:04.902Z,100103.94
2024-02-18T02:55:31.506Z,100101.56
2024-02-18T02:57:58.399Z,100095.69
2024-02-18T03:00:26.386Z,100097.38
2024-02-18T03:02:53.240Z,100097.72
2024-02-18T03:05:20.045Z,100101.09
2024-02-18T03:07:46.904Z,100104.00
2024-02-18T03:10:13.864Z,100100.25
2024-02-18T03:12:41.746Z,100106.53
2024-02-18T03:15:09.405Z,100106.41
2024-02-18T03:17:37.232Z,100097.78
2024-02-18T03:20:08.751Z,100100.56
2024-02-18T03:22:35.759Z,100093.00
2024-02-18T03:25:03.044Z,100102.19
2024-02-18T03:27:29.990Z,100103.41
2024-02-18T03:29:57.267Z,100106.31
2024-02-18T03:32:23.909Z,100104.53
2024-02-18T03:34:50.890Z,100102.19
2024-02-18T03:37:17.709Z,100102.28
2024-02-18T03:39:44.469Z,100097.84
2024-02-18T03:42:11.398Z,100096.78
2024-02-18T03:44:38.182Z,100103.63
2024-02-18T03:47:05.205Z,100103.91
2024-02-18T03:49:32.054Z,100103.34
2024-02-18T03:51:59.243Z,100105.88
2024-02-18T03:54:27.678Z,100113.06
2024-02-18T03:56:54.606Z,100120.03
2024-02-18T03:59:21.662Z,100121.97
2024-02-18T04:01:49.134Z,100113.63
2024-02-18T04:04:16.763Z,100126.19
2024-02-18T04:06:44.308Z,100127.69
2024-02-18T04:09:14.114Z,100127.56
2024-02-18T04:11:41.013Z,100133.47
2024-02-18T04:14:08.742Z,100124.03
2024-02-18T04:16:35.793Z,100127.84
2024-02-18T04:19:02.707Z,100124.59
2024-02-18T04:21:29.757Z,100127.91
2024-02-18T04:23:56.520Z,100119.94
2024-02-18T04:26:23.996Z,100115.16
2024-02-18T04:28:50.882Z,100109.94
2024-02-18T04:31:17.750Z,100115.59
2024-02-18T04:33:44.794Z,100098.84
2024-02-18T04:36:13.004Z,100108.81
2024-02-18T04:38:41.031Z,100092.41
2024-02-18T04:41:07.829Z,100102.91
2024-02-18T04:43:34.612Z,100101.63
2024-02-18T04:46:01.451Z,100106.44
2024-02-18T04:48:28.366Z,100102.31
2024-02-18T04:50:55.208Z,100102.22
2024-02-18T04:53:21.997Z,100103.75
2024-02-18T04:55:48.812Z,100094.41
2024-02-18T04:58:15.622Z,100089.31
2024-02-18T05:00:42.466Z,100076.44
2024-02-18T05:03:09.399Z,100080.75
2024-02-18T05:05:36.317Z,100083.13
2024-02-18T05:08:03.225Z,100086.50
2024-02-18T05:10:29.977Z,100074.72
2024-02-18T05:12:56.823Z,100090.91
2024-02-18T05:15:25.447Z,100091.16
2024-02-18T05:17:52.429Z,100091.47
2024-02-18T05:20:19.283Z,100073.75
2024-02-18T05:22:46.053Z,100087.50
2024-02-18T05:25:13.013Z,100087.84
2024-02-18T05:27:39.918Z,100085.78
2024-02-18T05:30:07.451Z,100092.69
2024-02-18T05:32:34.690Z,100086.59
2024-02-18T05:35:01.464Z,100095.16
2024-02-18T05:37:28.236Z,100095.16
2024-02-18T05:39:55.011Z,100099.47
2024-02-18T05:42:21.837Z,100103.91
2024-02-18T05:44:48.720Z,100100.56
2024-02-18T05:47:15.759Z,100093.69
2024-02-18T05:49:44.542Z,100105.13
2024-02-18T05:52:12.219Z,100104.03
2024-02-18T05:54:39.175Z,100105.97
2024-02-18T05:57:07.186Z,100104.25
2024-02-18T05:59:34.350Z,100102.25
2024-02-18T06:02:01.240Z,100106.00
2024-02-18T06:04:28.155Z,100113.19
2024-02-18T06:06:55.074Z,100108.03
2024-02-18T06:09:22.129Z,100113.66
2024-02-18T06:11:49.512Z,100112.28
2024-02-18T06:14:16.586Z,100121.16
2024-02-18T06:16:43.472Z,100120.81
2024-02-18T06:19:14.558Z,100115.16
2024-02-18T06:21:43.904Z,100132.53
2024-02-18T06:24:10.753Z,100133.75
2024-02-18T06:26:44.214Z,100135.84
2024-02-18T06:29:10.982Z,100139.91
2024-02-18T06:31:37.761Z,100141.50
2024-02-18T06:34:04.651Z,100128.63
2024-02-18T06:36:37.142Z,100140.53
2024-02-18T06:39:04.606Z,100142.97
2024-02-18T06:41:31.853Z,100145.25
2024-02-18T06:43:58.619Z,100147.78
2024-02-18T06:46:25.470Z,100135.94
2024-02-18T06:48:53.080Z,100145.06
2024-02-18T06:51:20.037Z,100147.59
2024-02-18T06:53:46.795Z,100147.41
2024-02-18T06:56:13.524Z,100149.09
2024-02-18T06:58:40.290Z,100151.78
2024-02-18T07:01:07.157Z,100150.72
2024-02-18T07:03:34.334Z,100154.81
2024-02-18T07:06:01.454Z,100151.72
2024-02-18T07:08:28.113Z,100152.75
2024-02-18T07:10:54.943Z,100149.03
2024-02-18T07:13:21.713Z,100153.19
2024-02-18T07:15:48.438Z,100146.13
2024-02-18T07:18:15.344Z,100149.50
2024-02-18T07:20:42.262Z,100153.41
2024-02-18T07:23:08.994Z,100163.94
2024-02-18T07:25:35.754Z,100157.72
2024-02-18T07:28:02.669Z,100169.97
2024-02-18T07:30:29.590Z,100157.72
2024-02-18T07:32:56.458Z,100158.22
2024-02-18T07:35:23.533Z,100171.59
2024-02-18T07:37:50.394Z,100168.91
2024-02-18T07:40:17.474Z,100173.59
2024-02-18T07:42:47.529Z,100170.69
2024-02-18T07:45:14.311Z,100181.22
2024-02-18T07:47:41.456Z,100172.53
2024-02-18T07:50:09.017Z,100183.91
2024-02-18T07:52:36.054Z,100173.97
2024-02-18T07:55:03.995Z,100165.75
2024-02-18T07:57:30.862Z,100184.66
2024-02-18T07:59:58.078Z,100193.94
2024-02-18T08:02:28.238Z,100184.69
2024-02-18T08:04:55.260Z,100174.19
2024-02-18T08:07:24.806Z,100169.41
2024-02-18T08:09:52.287Z,100172.69
2024-02-18T08:12:19.145Z,100161.94
2024-02-18T08:14:45.949Z,100167.03
2024-02-18T08:17:12.778Z,100165.25
2024-02-18T08:19:39.607Z,100160.94
2024-02-18T08:22:06.459Z,100164.03
2024-02-18T08:24:33.460Z,100172.06
2024-02-18T08:27:01.474Z,100165.44
2024-02-18T08:29:29.004Z,100158.41
2024-02-18T08:31:55.899Z,100155.72
2024-02-18T08:34:23.715Z,100138.88
2024-02-18T08:36:50.652Z,100154.91
2024-02-18T08:39:17.464Z,100160.38
2024-02-18T08:41:44.207Z,100157.88
2024-02-18T08:44:11.106Z,100152.59
2024-02-18T08:46:38.737Z,100150.38
2024-02-18T08:49:05.753Z,100147.66
2024-02-18T08:51:32.733Z,100157.22
2024-02-18T08:54:01.516Z,100147.09
2024-02-18T08:56:28.380Z,100168.38
2024-02-18T08:58:55.865Z,100160.75
2024-02-18T09:01:24.520Z,100159.00
2024-02-18T09:03:51.982Z,100148.03
2024-02-18T09:06:19.460Z,100161.34
2024-02-18T09:08:46.356Z,100156.91
2024-02-18T09:11:13.432Z,100144.41
2024-02-18T09:13:40.292Z,100136.69
2024-02-18T09:16:07.905Z,100146.63
2024-02-18T09:18:35.691Z,100154.06
2024-02-18T09:21:06.528Z,100150.34
2024-02-18T09:23:33.566Z,100138.91
2024-02-18T09:26:00.680Z,100144.63
2024-02-18T09:28:27.538Z,100146.38
2024-02-18T09:30:56.679Z,100149.75
2024-02-18T09:33:24.242Z,100146.38
2024-02-18T09:35:51.549Z,100140.59
2024-02-18T09:38:18.604Z,100147.25
2024-02-18T09:40:45.384Z,100143.25
2024-02-18T09:43:14.429Z,100136.94
2024-02-18T09:45:44.959Z,100128.22
2024-02-18T09:48:14.716Z,100126.56
2024-02-18T09:50:41.895Z,100119.00
2024-02-18T09:53:10.266Z,100122.59
2024-02-18T09:55:38.569Z,100116.66
2024-02-18T09:58:05.443Z,100116.03
2024-02-18T10:00:32.659Z,100119.50
2024-02-18T10:02:59.564Z,100113.41
2024-02-18T10:05:26.416Z,100102.13
2024-02-18T10:08:00.445Z,100100.41
2024-02-18T10:10:27.232Z,100103.75
2024-02-18T10:12:54.341Z,100090.72
2024-02-18T10:15:21.188Z,100087.03
2024-02-18T10:17:47.987Z,100093.84
2024-02-18T10:20:16.013Z,100079.94
2024-02-18T10:22:43.594Z,100092.16
2024-02-18T10:25:11.558Z,100077.63
2024-02-18T10:27:40.092Z,100069.19
2024-02-18T10:30:11.533Z,100060.59
2024-02-18T10:32:38.400Z,100057.50
2024-02-18T10:35:09.844Z,100053.09
2024-02-18T10:37:38.567Z,100053.16
2024-02-18T10:40:25.190Z,100037.44
2024-02-18T10:42:53.342Z,100043.44
2024-02-18T10:45:22.551Z,100039.00
2024-02-18T10:47:54.885Z,100027.16
2024-02-18T10:50:27.465Z,100028.84
2024-02-18T10:53:32.582Z,100023.03
2024-02-18T10:56:06.780Z,100022.19
2024-02-18T10:59:08.898Z,100021.41
2024-02-18T11:01:42.230Z,100014.91
2024-02-18T11:04:11.054Z,100020.59
2024-02-18T11:06:39.069Z,100010.25
2024-02-18T11:09:12.695Z,99993.97
2024-02-18T11:11:42.442Z,99999.41
2024-02-18T11:14:12.450Z,99991.22
2024-02-18T11:16:43.273Z,99999.66
2024-02-18T11:19:11.581Z,99997.56
2024-02-18T11:21:39.460Z,99998.03
2024-02-18T11:24:08.618Z,99975.25
2024-02-18T11:26:35.486Z,99978.34
2024-02-18T11:29:03.383Z,99971.59
2024-02-18T11:31:31.479Z,99969.44
2024-02-18T11:33:58.593Z,99962.16
2024-02-18T11:36:28.285Z,99963.41
2024-02-18T11:38:58.730Z,99961.34
2024-02-18T11:41:33.994Z,99959.53
2024-02-18T11:44:11.408Z,99953.06
2024-02-18T11:46:44.872Z,99945.94
2024-02-18T11:49:12.744Z,99952.94
2024-02-18T11:51:40.946Z,99947.69
2024-02-18T11:54:07.698Z,99948.66
2024-02-18T11:56:34.536Z,99934.25
2024-02-18T11:59:01.280Z,99943.34
2024-02-18T12:01:28.891Z,99926.59
2024-02-18T12:03:56.755Z,99925.06
2024-02-18T12:06:27.152Z,99934.28
2024-02-18T12:08:54.095Z,99932.66
2024-02-18T12:11:21.005Z,99936.09
2024-02-18T12:13:50.293Z,99935.03
2024-02-18T12:16:20.154Z,99933.56
2024-02-18T12:18:47.194Z,99920.19
2024-02-18T12:21:18.291Z,99922.88
2024-02-18T12:23:45.090Z,99917.28
2024-02-18T12:26:13.975Z,99910.16
2024-02-18T12:28:41.103Z,99910.13
2024-02-18T12:31:08.438Z,99906.50
2024-02-18T12:33:35.618Z,99900.91
2024-02-18T12:36:02.724Z,99901.75
2024-02-18T12:38:29.325Z,99907.28
2024-02-18T12:40:58.884Z,99906.78
2024-02-18T12:44:10.486Z,99903.28
2024-02-18T12:46:16.421Z,99891.72
2024-02-18T12:48:43.625Z,99892.56
2024-02-18T12:51:16.163Z,99880.88
2024-02-18T12:53:44.263Z,99878.38
2024-02-18T12:56:13.075Z,99876.50
2024-02-18T12:58:40.794Z,99874.50
2024-02-18T13:01:11.583Z,99859.84
2024-02-18T13:03:39.970Z,99854.22
2024-02-18T13:06:08.151Z,99856.16
2024-02-18T13:08:35.316Z,99852.00
2024-02-18T13:11:02.113Z,99847.50
2024-02-18T13:13:29.513Z,99839.19
2024-02-18T13:15:56.654Z,99831.84
2024-02-18T13:18:23.479Z,99829.28
2024-02-18T13:20:50.266Z,99837.00
2024-02-18T13:23:17.055Z,99831.81
2024-02-18T13:25:44.072Z,99844.72
2024-02-18T13:28:12.385Z,99837.09
2024-02-18T13:30:40.172Z,99827.41
2024-02-18T13:33:07.038Z,99830.38
2024-02-18T13:35:34.702Z,99826.59
2024-02-18T13:38:01.866Z,99818.50
2024-02-18T13:40:31.022Z,99817.09
2024-02-18T13:42:57.915Z,99808.69
2024-02-18T13:45:25.571Z,99801.72
2024-02-18T13:47:58.767Z,99793.50
2024-02-18T13:50:28.210Z,99790.84
2024-02-18T13:52:55.195Z,99801.13
2024-02-18T13:55:22.102Z,99784.13
2024-02-18T13:57:48.708Z,99780.22
2024-02-18T14:00:15.994Z,99766.88
2024-02-18T14:02:42.981Z,99750.84
2024-02-18T14:05:17.368Z,99750.16
2024-02-18T14:07:44.177Z,99752.84
2024-02-18T14:10:12.634Z,99745.59
2024-02-18T14:12:39.552Z,99735.91
2024-02-18T14:15:07.463Z,99723.56
2024-02-18T14:17:34.202Z,99733.59
2024-02-18T14:20:02.251Z,99738.13
2024-02-18T14:22:30.554Z,99727.19
2024-02-18T14:24:59.036Z,99726.94
2024-02-18T14:27:26.029Z,99728.03
2024-02-18T14:29:53.108Z,99732.28
2024-02-18T14:32:20.261Z,99734.75
2024-02-18T14:34:47.069Z,99735.19
2024-02-18T14:37:13.886Z,99729.56
2024-02-18T14:39:41.056Z,99722.00
2024-02-18T14:42:07.777Z,99737.69
2024-02-18T14:44:34.512Z,99727.16
2024-02-18T14:47:02.685Z,99722.59
2024-02-18T14:49:35.834Z,99729.53
2024-02-18T14:52:08.783Z,99729.69
2024-02-18T14:54:35.601Z,99726.09
2024-02-18T14:57:02.337Z,99718.41
2024-02-18T14:59:29.084Z,99725.22
2024-02-18T15:01:55.909Z,99725.75
2024-02-18T15:04:22.700Z,99726.97
2024-02-18T15:06:50.631Z,99716.81
2024-02-18T15:09:20.745Z,99713.81
2024-02-18T15:11:47.512Z,99712.78
2024-02-18T15:14:14.240Z,99705.88
2024-02-18T15:16:40.962Z,99703.56
2024-02-18T15:19:08.018Z,99690.63
2024-02-18T15:21:35.044Z,99686.50
2024-02-18T15:24:01.646Z,99683.34
2024-02-18T15:26:28.550Z,99682.16
2024-02-18T15:28:55.416Z,99695.06
2024-02-18T15:31:22.310Z,99690.59
2024-02-18T15:33:50.153Z,99685.72
2024-02-18T15:36:16.996Z,99678.16
2024-02-18T15:38:45.443Z,99674.38
2024-02-18T15:41:12.227Z,99677.72
2024-02-18T15:43:39.536Z,99678.97
2024-02-18T15:46:06.360Z,99666.22
2024-02-18T15:48:33.488Z,99674.16
2024-02-18T15:51:00.402Z,99669.78
2024-02-18T15:53:27.577Z,99675.03
2024-02-18T15:56:01.915Z,99666.66
2024-02-18T15:58:30.832Z,99676.63
2024-02-18T16:00:57.784Z,99673.47
2024-02-18T16:03:24.780Z,99671.00
2024-02-18T16:05:51.605Z,99666.91
2024-02-18T16:08:19.697Z,99663.44
2024-02-18T16:10:47.126Z,99663.41
2024-02-18T16:13:14.306Z,99659.31
2024-02-18T16:15:41.301Z,99662.88
2024-02-18T16:18:09.022Z,99667.50
2024-02-18T16:20:35.799Z,99677.13
2024-02-18T16:23:04.101Z,99652.13
2024-02-18T16:25:32.043Z,99671.34
2024-02-18T16:27:58.812Z,99663.66
2024-02-18T16:30:25.548Z,99667.13
2024-02-18T16:32:52.335Z,99658.13
2024-02-18T16:35:19.578Z,99647.47
2024-02-18T16:37:46.618Z,99657.34
2024-02-18T16:40:13.540Z,99659.72
2024-02-18T16:42:40.374Z,99654.69
2024-02-18T16:45:08.391Z,99648.41
2024-02-18T16:47:36.243Z,99652.94
2024-02-18T16:50:03.070Z,99650.38
2024-02-18T16:52:29.996Z,99655.97
2024-02-18T16:54:56.848Z,99653.13
2024-02-18T16:57:24.316Z,99648.19
2024-02-18T16:59:51.524Z,99653.81
2024-02-18T17:02:18.502Z,99649.53
2024-02-18T17:04:45.370Z,99654.56
2024-02-18T17:07:14.658Z,99649.13
2024-02-18T17:09:41.500Z,99646.91
2024-02-18T17:12:09.214Z,99649.88
2024-02-18T17:14:38.274Z,99648.88
2024-02-18T17:17:05.478Z,99651.94
2024-02-18T17:19:32.659Z,99645.06
2024-02-18T17:21:59.773Z,99644.88
2024-02-18T17:24:29.898Z,99641.94
2024-02-18T17:26:59.567Z,99634.78
2024-02-18T17:29:26.375Z,99633.16
2024-02-18T17:31:53.316Z,99634.53
2024-02-18T17:34:25.803Z,99632.69
2024-02-18T17:36:53.506Z,99622.66
2024-02-18T17:39:21.122Z,99626.97
2024-02-18T17:41:47.936Z,99626.56
2024-02-18T17:44:14.777Z,99623.88
2024-02-18T17:46:41.876Z,99622.94
2024-02-18T17:49:08.517Z,99625.63
2024-02-18T17:51:37.078Z,99616.69
2024-02-18T17:54:04.438Z,99599.25
2024-02-18T17:56:35.075Z,99609.25
2024-02-18T17:59:02.452Z,99604.03
2024-02-18T18:01:29.214Z,99612.59
2024-02-18T18:03:56.105Z,99607.47
2024-02-18T18:06:22.875Z,99605.94
2024-02-18T18:08:49.617Z,99607.09
2024-02-18T18:11:16.453Z,99605.63
2024-02-18T18:13:43.843Z,99609.94
2024-02-18T18:16:10.704Z,99606.13
2024-02-18T18:18:37.638Z,99601.41
2024-02-18T18:21:08.499Z,99599.44
2024-02-18T18:23:35.591Z,99596.28
2024-02-18T18:26:02.426Z,99594.63
2024-02-18T18:28:29.257Z,99593.84
2024-02-18T18:30:56.134Z,99589.41
2024-02-18T18:33:23.069Z,99583.72
2024-02-18T18:35:51.192Z,99579.41
2024-02-18T18:38:23.513Z,99573.38
2024-02-18T18:40:50.365Z,99568.91
2024-02-18T18:43:17.200Z,99570.25
2024-02-18T18:45:44.193Z,99573.38
2024-02-18T18:48:11.022Z,99573.16
2024-02-18T18:50:37.835Z,99565.97
2024-02-18T18:53:04.825Z,99568.41
2024-02-18T18:55:31.581Z,99560.78
2024-02-18T18:58:00.187Z,99557.81
2024-02-18T19:00:32.202Z,99552.44
2024-02-18T19:02:59.215Z,99552.75
2024-02-18T19:05:26.291Z,99552.69
2024-02-18T19:07:53.011Z,99545.59
2024-02-18T19:10:20.317Z,99546.81
2024-02-18T19:12:47.701Z,99552.78
2024-02-18T19:15:14.610Z,99543.19
2024-02-18T19:17:41.507Z,99538.72
2024-02-18T19:20:09.094Z,99547.13
2024-02-18T19:22:38.923Z,99550.13
2024-02-18T19:25:06.766Z,99540.03
2024-02-18T19:27:33.562Z,99547.84
2024-02-18T19:30:02.055Z,99535.94
2024-02-18T19:32:29.092Z,99538.38
2024-02-18T19:34:56.142Z,99539.22
2024-02-18T19:37:22.995Z,99535.94
2024-02-18T19:39:49.823Z,99511.84
2024-02-18T19:42:16.588Z,99532.09
2024-02-18T19:44:43.526Z,99527.41
2024-02-18T19:47:10.327Z,99522.72
2024-02-18T19:49:37.164Z,99516.88
2024-02-18T19:52:04.304Z,99508.25
2024-02-18T19:54:31.717Z,99508.84
2024-02-18T19:56:58.882Z,99501.63
2024-02-18T19:59:27.641Z,99493.69
2024-02-18T20:01:55.845Z,99497.63
2024-02-18T20:04:22.947Z,99491.91
2024-02-18T20:06:50.754Z,99493.03
2024-02-18T20:09:20.748Z,99485.53
2024-02-18T20:11:51.776Z,99485.81
2024-02-18T20:14:21.685Z,99483.09
2024-02-18T20:16:48.413Z,99480.25
2024-02-18T20:19:16.268Z,99478.81
2024-02-18T20:21:43.595Z,99470.34
2024-02-18T20:24:10.425Z,99470.00
2024-02-18T20:26:37.784Z,99460.97
2024-02-18T20:29:04.658Z,99464.69
2024-02-18T20:31:31.416Z,99462.94
2024-02-18T20:33:58.258Z,99456.28
2024-02-18T20:36:25.165Z,99465.31
2024-02-18T20:38:54.552Z,99468.69
2024-02-18T20:41:22.695Z,99457.03
2024-02-18T20:43:49.671Z,99460.94
2024-02-18T20:46:19.720Z,99468.81
2024-02-18T20:48:48.219Z,99465.34
2024-02-18T20:51:16.704Z,99464.53
2024-02-18T20:53:43.819Z,99465.84
2024-02-18T20:56:10.545Z,99460.81
2024-02-18T20:58:40.200Z,99456.41
2024-02-18T21:01:08.541Z,99461.19
2024-02-18T21:03:35.442Z,99451.69
2024-02-18T21:06:02.932Z,99453.38
2024-02-18T21:08:30.840Z,99455.03
2024-02-18T21:10:57.906Z,99452.31
2024-02-18T21:13:25.119Z,99449.69
2024-02-18T21:15:52.041Z,99458.22
2024-02-18T21:18:19.354Z,99451.19
2024-02-18T21:20:46.100Z,99448.47
2024-02-18T21:23:13.400Z,99439.03
2024-02-18T21:25:40.328Z,99441.84
2024-02-18T21:28:07.378Z,99447.28
2024-02-18T21:30:34.275Z,99444.06
2024-02-18T21:33:01.312Z,99449.91
2024-02-18T21:35:28.190Z,99439.31
2024-02-18T21:37:54.959Z,99434.19
2024-02-18T21:40:21.789Z,99431.88
2024-02-18T21:42:48.617Z,99432.94
2024-02-18T21:45:15.542Z,99425.16
2024-02-18T21:47:42.440Z,99418.25
2024-02-18T21:50:15.994Z,99428.38
2024-02-18T21:52:42.883Z,99403.16
2024-02-18T21:55:09.776Z,99423.22
2024-02-18T21:57:36.868Z,99428.78
2024-02-18T22:00:04.642Z,99426.22
2024-02-18T22:02:32.137Z,99424.09
2024-02-18T22:04:59.213Z,99420.38
2024-02-18T22:07:26.067Z,99432.41
2024-02-18T22:09:52.898Z,99411.06
2024-02-18T22:12:19.673Z,99413.06
2024-02-18T22:14:46.429Z,99412.41
2024-02-18T22:17:13.188Z,99415.88
2024-02-18T22:19:40.170Z,99416.34
2024-02-18T22:22:07.090Z,99408.44
2024-02-18T22:24:33.907Z,99415.47
2024-02-18T22:27:00.753Z,99420.59
2024-02-18T22:29:27.509Z,99417.84
2024-02-18T22:31:54.373Z,99408.19
2024-02-18T22:34:21.286Z,99411.34
2024-02-18T22:36:48.278Z,99405.16
2024-02-18T22:39:15.060Z,99414.16
2024-02-18T22:41:45.135Z,99412.16
2024-02-18T22:44:12.970Z,99415.75
2024-02-18T22:46:39.756Z,99415.25
2024-02-18T22:49:06.572Z,99404.84
2024-02-18T22:51:33.626Z,99408.38
2024-02-18T22:54:00.406Z,99406.06
2024-02-18T22:56:27.212Z,99406.75
2024-02-18T22:58:53.949Z,99407.50
2024-02-18T23:01:22.173Z,99417.31
2024-02-18T23:03:49.100Z,99405.00
2024-02-18T23:06:15.972Z,99399.06
2024-02-18T23:08:42.820Z,99399.97
2024-02-18T23:11:09.689Z,99387.50
2024-02-18T23:13:36.534Z,99400.84
2024-02-18T23:16:03.553Z,99392.28
2024-02-18T23:18:30.491Z,99396.53
2024-02-18T23:20:57.298Z,99390.34
2024-02-18T23:23:24.111Z,99386.44
2024-02-18T23:25:50.894Z,99379.94
2024-02-18T23:28:17.876Z,99385.22
2024-02-18T23:30:44.719Z,99372.03
2024-02-18T23:33:11.566Z,99382.97
2024-02-18T23:35:38.435Z,99393.25
2024-02-18T23:38:05.587Z,99370.66
2024-02-18T23:40:33.143Z,99376.97
2024-02-18T23:43:00.275Z,99378.78
2024-02-18T23:45:27.362Z,99382.13
2024-02-18T23:47:54.170Z,99387.28
2024-02-18T23:50:21.039Z,99381.84
2024-02-18T23:52:47.801Z,99380.19
2024-02-18T23:55:14.626Z,99357.16
2024-02-18T23:57:41.462Z,99372.16
